createdAt,value
2023-04-06T00:00:47.840Z,44.91
2023-04-06T00:03:24.981Z,45.08
2023-04-06T00:05:59.355Z,45.22
2023-04-06T00:08:33.087Z,45.31
2023-04-06T00:11:07.735Z,45.31
2023-04-06T00:13:41.640Z,45.30
2023-04-06T00:16:15.551Z,45.34
2023-04-06T00:18:48.973Z,45.37
2023-04-06T00:21:22.573Z,45.48
2023-04-06T00:23:56.522Z,45.55
2023-04-06T00:26:40.277Z,45.58
2023-04-06T00:29:14.039Z,45.64
2023-04-06T00:31:47.919Z,45.61
2023-04-06T00:34:21.875Z,45.63
2023-04-06T00:36:55.641Z,45.62
2023-04-06T00:39:39.184Z,45.71
2023-04-06T00:42:16.092Z,45.68
2023-04-06T00:44:50.163Z,45.68
2023-04-06T00:47:23.676Z,45.66
2023-04-06T00:49:57.697Z,45.43
2023-04-06T00:52:31.603Z,45.37
2023-04-06T00:55:10.935Z,45.37
2023-04-06T00:57:48.526Z,45.45
2023-04-06T01:00:23.206Z,45.58
2023-04-06T01:03:02.220Z,45.60
2023-04-06T01:05:43.969Z,45.70
2023-04-06T01:08:27.635Z,45.72
2023-04-06T01:11:04.193Z,45.54
2023-04-06T01:13:37.723Z,45.64
2023-04-06T01:16:25.754Z,45.54
2023-04-06T01:19:13.688Z,45.55
2023-04-06T01:21:54.914Z,45.68
2023-04-06T01:24:38.102Z,45.70
2023-04-06T01:27:22.338Z,45.67
2023-04-06T01:29:59.198Z,45.60
2023-04-06T01:32:42.855Z,45.53
2023-04-06T01:35:17.664Z,45.61
2023-04-06T01:37:59.371Z,45.59
2023-04-06T01:40:38.272Z,45.67
2023-04-06T01:43:12.923Z,45.68
2023-04-06T01:45:57.345Z,45.70
2023-04-06T01:48:36.569Z,45.62
2023-04-06T01:51:19.056Z,45.75
2023-04-06T01:53:58.210Z,45.80
2023-04-06T01:56:39.496Z,45.81
2023-04-06T01:59:23.017Z,45.70
2023-04-06T02:01:56.968Z,45.81
2023-04-06T02:04:31.196Z,45.86
2023-04-06T02:07:13.686Z,45.87
2023-04-06T02:09:47.921Z,45.82
2023-04-06T02:12:28.340Z,45.90
2023-04-06T02:15:01.924Z,45.92
2023-04-06T02:17:36.071Z,46.09
2023-04-06T02:20:12.286Z,46.06
2023-04-06T02:22:46.196Z,46.12
2023-04-06T02:25:20.020Z,46.12
2023-04-06T02:27:53.473Z,46.25
2023-04-06T02:30:27.485Z,46.31
2023-04-06T02:33:01.636Z,46.37
2023-04-06T02:35:36.300Z,46.45
2023-04-06T02:38:10.515Z,46.43
2023-04-06T02:40:44.005Z,46.57
2023-04-06T02:43:26.119Z,46.68
2023-04-06T02:46:07.825Z,46.82
2023-04-06T02:48:42.609Z,46.89
2023-04-06T02:51:16.233Z,47.11
2023-04-06T02:53:51.389Z,47.26
2023-04-06T02:56:25.500Z,47.30
2023-04-06T02:58:59.302Z,47.28
2023-04-06T03:01:34.501Z,47.49
2023-04-06T03:04:10.521Z,47.59
2023-04-06T03:06:44.445Z,47.67
2023-04-06T03:09:26.790Z,47.79
2023-04-06T03:12:01.363Z,47.83
2023-04-06T03:14:36.020Z,47.99
2023-04-06T03:17:10.474Z,48.06
2023-04-06T03:19:44.789Z,48.16
2023-04-06T03:22:18.106Z,48.17
2023-04-06T03:24:53.288Z,48.22
2023-04-06T03:27:27.405Z,48.36
2023-04-06T03:30:01.464Z,48.39
2023-04-06T03:32:39.190Z,48.52
2023-04-06T03:35:13.869Z,48.57
2023-04-06T03:37:47.879Z,48.75
2023-04-06T03:40:33.386Z,48.88
2023-04-06T03:43:10.467Z,48.93
2023-04-06T03:45:44.514Z,48.94
2023-04-06T03:48:19.176Z,49.06
2023-04-06T03:50:55.659Z,49.18
2023-04-06T03:53:29.159Z,49.33
2023-04-06T03:56:04.706Z,49.49
2023-04-06T03:58:39.314Z,49.58
2023-04-06T04:01:12.977Z,49.64
2023-04-06T04:03:47.181Z,49.81
2023-04-06T04:06:21.982Z,49.95
2023-04-06T04:08:55.680Z,50.05
2023-04-06T04:11:30.083Z,50.13
2023-04-06T04:14:04.996Z,50.28
2023-04-06T04:16:40.725Z,50.37
2023-04-06T04:19:14.908Z,50.45
2023-04-06T04:21:49.562Z,50.57
2023-04-06T04:24:26.101Z,50.65
2023-04-06T04:27:00.362Z,50.66
2023-04-06T04:29:35.031Z,50.71
2023-04-06T04:32:11.784Z,50.70
2023-04-06T04:34:45.619Z,50.79
2023-04-06T04:37:24.583Z,50.94
2023-04-06T04:40:01.988Z,50.91
2023-04-06T04:42:37.273Z,50.91
2023-04-06T04:45:12.847Z,50.89
2023-04-06T04:47:46.626Z,51.00
2023-04-06T04:50:21.682Z,50.96
2023-04-06T04:52:56.647Z,51.00
2023-04-06T04:55:34.345Z,51.11
2023-04-06T04:58:10.806Z,51.03
2023-04-06T05:01:07.784Z,50.95
2023-04-06T05:03:41.990Z,50.95
2023-04-06T05:06:19.497Z,50.98
2023-04-06T05:08:53.293Z,51.08
2023-04-06T05:11:28.180Z,51.08
2023-04-06T05:14:05.790Z,50.97
2023-04-06T05:16:39.472Z,50.94
2023-04-06T05:19:15.544Z,50.85
2023-04-06T05:21:50.693Z,50.75
2023-04-06T05:24:25.641Z,50.69
2023-04-06T05:26:59.578Z,50.60
2023-04-06T05:29:33.588Z,50.63
2023-04-06T05:32:07.924Z,50.49
2023-04-06T05:34:43.204Z,50.43
2023-04-06T05:37:17.221Z,50.53
2023-04-06T05:39:51.406Z,50.61
2023-04-06T05:42:25.681Z,50.66
2023-04-06T05:45:02.597Z,50.68
2023-04-06T05:47:36.619Z,50.63
2023-04-06T05:50:19.304Z,50.51
2023-04-06T05:52:53.617Z,50.43
2023-04-06T05:55:29.472Z,50.13
2023-04-06T05:58:14.387Z,49.90
2023-04-06T06:00:48.852Z,49.44
2023-04-06T06:03:24.174Z,49.31
2023-04-06T06:06:05.523Z,48.96
2023-04-06T06:09:00.426Z,48.80
2023-04-06T06:11:35.733Z,48.61
2023-04-06T06:14:10.255Z,48.37
2023-04-06T06:16:45.360Z,48.33
2023-04-06T06:19:19.728Z,47.88
2023-04-06T06:21:53.520Z,47.46
2023-04-06T06:24:27.378Z,46.89
2023-04-06T06:27:02.239Z,46.46
2023-04-06T06:29:38.400Z,45.75
2023-04-06T06:32:12.403Z,45.45
2023-04-06T06:34:49.568Z,45.26
2023-04-06T06:37:24.718Z,45.03
2023-04-06T06:39:59.136Z,44.65
2023-04-06T06:42:33.137Z,44.43
2023-04-06T06:45:17.046Z,44.27
2023-04-06T06:47:52.900Z,43.99
2023-04-06T06:50:28.527Z,43.65
2023-04-06T06:53:02.131Z,43.23
2023-04-06T06:55:36.004Z,43.02
2023-04-06T06:58:10.126Z,42.84
2023-04-06T07:00:44.315Z,42.93
2023-04-06T07:03:18.694Z,42.72
2023-04-06T07:05:55.362Z,42.32
2023-04-06T07:08:30.213Z,42.27
2023-04-06T07:11:03.825Z,42.49
2023-04-06T07:13:37.474Z,42.42
2023-04-06T07:16:11.666Z,42.53
2023-04-06T07:18:45.702Z,42.64
2023-04-06T07:21:29.592Z,42.39
2023-04-06T07:24:07.189Z,42.04
2023-04-06T07:26:41.060Z,41.57
2023-04-06T07:29:15.541Z,42.28
2023-04-06T07:31:52.849Z,41.82
2023-04-06T07:34:26.685Z,41.17
2023-04-06T07:37:03.965Z,41.09
2023-04-06T07:39:38.329Z,40.77
2023-04-06T07:42:11.874Z,41.02
2023-04-06T07:44:45.841Z,41.04
2023-04-06T07:47:19.943Z,41.29
2023-04-06T07:49:53.965Z,41.17
2023-04-06T07:52:27.610Z,41.16
2023-04-06T07:55:02.054Z,41.49
2023-04-06T07:57:36.002Z,41.55
2023-04-06T08:00:22.379Z,41.66
2023-04-06T08:03:06.750Z,41.49
2023-04-06T08:05:40.466Z,41.61
2023-04-06T08:08:14.823Z,41.71
2023-04-06T08:10:48.366Z,41.89
2023-04-06T08:13:22.417Z,42.12
2023-04-06T08:15:56.301Z,41.96
2023-04-06T08:18:31.253Z,42.00
2023-04-06T08:21:04.934Z,42.01
2023-04-06T08:23:38.849Z,42.03
2023-04-06T08:26:13.263Z,41.97
2023-04-06T08:28:49.235Z,41.81
2023-04-06T08:31:22.990Z,41.85
2023-04-06T08:33:56.919Z,42.18
2023-04-06T08:36:30.761Z,42.35
2023-04-06T08:39:05.020Z,42.36
2023-04-06T08:41:39.023Z,42.51
2023-04-06T08:44:13.086Z,42.79
2023-04-06T08:46:47.334Z,42.81
2023-04-06T08:49:21.292Z,43.30
2023-04-06T08:51:54.756Z,43.46
2023-04-06T08:54:28.429Z,43.63
2023-04-06T08:57:02.521Z,44.37
2023-04-06T08:59:37.798Z,44.97
2023-04-06T09:02:18.809Z,45.34
2023-04-06T09:04:57.033Z,45.39
2023-04-06T09:07:32.256Z,45.55
2023-04-06T09:10:06.877Z,45.62
2023-04-06T09:12:40.440Z,45.82
2023-04-06T09:15:24.957Z,45.93
2023-04-06T09:18:02.216Z,46.18
2023-04-06T09:20:36.098Z,46.49
2023-04-06T09:23:20.230Z,46.61
2023-04-06T09:25:54.700Z,46.74
2023-04-06T09:28:28.404Z,47.11
2023-04-06T09:31:02.342Z,47.48
2023-04-06T09:33:38.855Z,47.79
2023-04-06T09:36:13.511Z,47.96
2023-04-06T09:38:58.734Z,47.91
2023-04-06T09:41:34.471Z,47.96
2023-04-06T09:44:10.265Z,47.87
2023-04-06T09:49:23.398Z,48.66
2023-04-06T09:52:01.527Z,49.46
2023-04-06T09:54:37.797Z,50.12
2023-04-06T09:57:21.333Z,50.55
2023-04-06T10:00:05.088Z,51.26
2023-04-06T10:02:47.088Z,51.10
2023-04-06T10:05:30.131Z,51.27
2023-04-06T10:08:09.219Z,51.67
2023-04-06T10:10:43.052Z,51.60
2023-04-06T10:13:17.989Z,51.87
2023-04-06T10:15:53.265Z,52.12
2023-04-06T10:18:27.473Z,52.30
2023-04-06T10:21:09.172Z,52.70
2023-04-06T10:23:47.924Z,52.87
2023-04-06T10:26:24.091Z,53.09
2023-04-06T10:28:58.169Z,53.45
2023-04-06T10:31:32.072Z,53.75
2023-04-06T10:34:06.734Z,54.11
2023-04-06T10:36:40.828Z,54.23
2023-04-06T10:39:14.995Z,54.28
2023-04-06T10:41:50.079Z,54.68
2023-04-06T10:44:25.254Z,55.03
2023-04-06T10:47:01.801Z,55.09
2023-04-06T10:49:35.576Z,55.41
2023-04-06T10:52:10.863Z,56.66
2023-04-06T10:54:48.316Z,57.19
2023-04-06T10:57:34.239Z,57.08
2023-04-06T11:00:12.597Z,56.48
2023-04-06T11:02:46.526Z,56.35
2023-04-06T11:05:20.144Z,56.16
2023-04-06T11:07:54.209Z,56.14
2023-04-06T11:10:27.734Z,56.20
2023-04-06T11:13:01.879Z,56.23
2023-04-06T11:15:40.113Z,56.28
2023-04-06T11:18:13.677Z,56.23
2023-04-06T11:20:51.977Z,56.43
2023-04-06T11:23:28.840Z,56.58
2023-04-06T11:26:02.665Z,56.55
2023-04-06T11:28:36.881Z,56.45
2023-04-06T11:31:12.129Z,56.66
2023-04-06T11:33:45.971Z,56.62
2023-04-06T11:36:19.962Z,56.49
2023-04-06T11:38:54.068Z,56.59
2023-04-06T11:41:31.423Z,56.84
2023-04-06T11:44:08.519Z,56.81
2023-04-06T11:46:54.070Z,57.02
2023-04-06T11:49:31.481Z,57.18
2023-04-06T11:52:05.805Z,57.17
2023-04-06T11:54:40.672Z,57.16
2023-04-06T11:57:14.983Z,57.30
2023-04-06T11:59:49.213Z,57.52
2023-04-06T12:02:23.444Z,57.63
2023-04-06T12:04:57.267Z,57.40
2023-04-06T12:10:19.084Z,57.58
2023-04-06T12:12:52.895Z,57.69
2023-04-06T12:15:26.614Z,57.69
2023-04-06T12:18:00.441Z,57.80
2023-04-06T12:20:34.378Z,57.94
2023-04-06T12:23:08.287Z,57.55
2023-04-06T12:25:43.757Z,57.66
2023-04-06T12:28:18.109Z,57.71
2023-04-06T12:30:51.544Z,57.64
2023-04-06T12:33:25.510Z,57.60
2023-04-06T12:35:59.382Z,57.69
2023-04-06T12:38:33.298Z,57.53
2023-04-06T12:41:08.251Z,57.52
2023-04-06T12:43:42.041Z,57.51
2023-04-06T12:46:15.981Z,57.54
2023-04-06T12:48:49.977Z,57.63
2023-04-06T12:51:27.362Z,57.45
2023-04-06T12:54:00.940Z,57.55
2023-04-06T12:56:34.957Z,57.75
2023-04-06T12:59:08.912Z,57.80
2023-04-06T13:01:42.771Z,57.85
2023-04-06T13:04:16.528Z,57.74
2023-04-06T13:06:50.562Z,57.77
2023-04-06T13:09:24.358Z,57.77
2023-04-06T13:11:58.272Z,57.76
2023-04-06T13:14:32.706Z,57.91
2023-04-06T13:17:06.085Z,58.18
2023-04-06T13:19:39.640Z,58.20
2023-04-06T13:22:13.617Z,58.23
2023-04-06T13:24:47.610Z,58.37
2023-04-06T13:27:21.393Z,58.41
2023-04-06T13:29:55.090Z,58.69
2023-04-06T13:32:29.335Z,58.66
2023-04-06T13:35:04.911Z,58.93
2023-04-06T13:37:38.815Z,59.00
2023-04-06T13:40:14.047Z,59.21
2023-04-06T13:42:47.731Z,59.19
2023-04-06T13:45:24.651Z,59.35
2023-04-06T13:47:59.182Z,59.45
2023-04-06T13:50:33.098Z,59.62
2023-04-06T13:53:06.736Z,59.84
2023-04-06T13:55:39.997Z,59.90
2023-04-06T13:58:14.282Z,59.98
2023-04-06T14:00:48.799Z,59.98
2023-04-06T14:03:23.010Z,60.10
2023-04-06T14:06:01.287Z,60.15
2023-04-06T14:08:38.920Z,60.30
2023-04-06T14:11:16.158Z,60.28
2023-04-06T14:13:49.932Z,60.31
2023-04-06T14:16:24.501Z,60.19
2023-04-06T14:18:59.121Z,60.29
2023-04-06T14:21:33.230Z,60.46
2023-04-06T14:24:07.978Z,60.70
2023-04-06T14:26:42.696Z,60.76
2023-04-06T14:29:17.135Z,60.95
2023-04-06T14:31:51.769Z,61.15
2023-04-06T14:34:25.517Z,61.29
2023-04-06T14:36:59.900Z,61.27
2023-04-06T14:39:33.847Z,61.29
2023-04-06T14:42:08.201Z,61.37
2023-04-06T14:44:44.333Z,61.38
2023-04-06T14:47:21.831Z,61.55
2023-04-06T14:49:56.354Z,61.66
2023-04-06T14:52:37.741Z,61.66
2023-04-06T14:55:12.464Z,61.62
2023-04-06T14:57:46.580Z,61.58
2023-04-06T15:00:22.086Z,61.54
2023-04-06T15:03:09.578Z,61.49
2023-04-06T15:05:44.393Z,61.63
2023-04-06T15:08:18.556Z,61.68
2023-04-06T15:10:52.763Z,61.82
2023-04-06T15:13:26.939Z,61.84
2023-04-06T15:16:01.919Z,61.95
2023-04-06T15:18:36.193Z,62.05
2023-04-06T15:21:09.860Z,62.04
2023-04-06T15:23:44.122Z,62.05
2023-04-06T15:26:17.780Z,62.07
2023-04-06T15:29:02.493Z,62.07
2023-04-06T15:31:42.824Z,62.07
2023-04-06T15:34:17.386Z,62.21
2023-04-06T15:36:52.120Z,62.24
2023-04-06T15:39:25.835Z,62.18
2023-04-06T15:41:59.477Z,62.22
2023-04-06T15:44:33.331Z,62.39
2023-04-06T15:47:07.512Z,62.42
2023-04-06T15:49:41.168Z,62.56
2023-04-06T15:52:14.793Z,62.67
2023-04-06T15:54:48.292Z,62.67
2023-04-06T15:57:21.924Z,62.74
2023-04-06T15:59:56.614Z,62.79
2023-04-06T16:02:30.671Z,62.79
2023-04-06T16:05:05.461Z,62.87
2023-04-06T16:07:39.564Z,62.93
2023-04-06T16:10:14.554Z,63.03
2023-04-06T16:12:48.096Z,63.03
2023-04-06T16:15:22.587Z,63.21
2023-04-06T16:17:56.733Z,63.28
2023-04-06T16:20:30.984Z,63.29
2023-04-06T16:23:04.801Z,63.53
2023-04-06T16:25:38.643Z,63.58
2023-04-06T16:28:12.409Z,63.74
2023-04-06T16:30:46.984Z,63.82
2023-04-06T16:33:21.318Z,64.01
2023-04-06T16:36:03.061Z,64.10
2023-04-06T16:38:36.759Z,64.29
2023-04-06T16:41:10.584Z,64.44
2023-04-06T16:43:47.173Z,64.54
2023-04-06T16:46:42.218Z,64.54
2023-04-06T16:49:17.905Z,64.60
2023-04-06T16:51:52.318Z,64.77
2023-04-06T16:54:26.308Z,64.96
2023-04-06T16:57:00.158Z,64.91
2023-04-06T16:59:34.308Z,65.06
2023-04-06T17:02:07.839Z,65.16
2023-04-06T17:04:44.909Z,65.12
2023-04-06T17:07:18.966Z,65.21
2023-04-06T17:09:52.631Z,65.29
2023-04-06T17:12:26.493Z,65.32
2023-04-06T17:15:00.364Z,65.48
2023-04-06T17:17:34.943Z,65.57
2023-04-06T17:20:10.454Z,65.64
2023-04-06T17:22:46.482Z,65.88
2023-04-06T17:25:21.181Z,65.93
2023-04-06T17:27:55.276Z,65.90
2023-04-06T17:30:28.938Z,65.90
2023-04-06T17:33:03.232Z,65.96
2023-04-06T17:35:37.364Z,66.01
2023-04-06T17:38:11.104Z,66.07
2023-04-06T17:40:45.102Z,66.22
2023-04-06T17:43:19.029Z,66.45
2023-04-06T17:45:54.420Z,66.52
2023-04-06T17:48:29.784Z,66.48
2023-04-06T17:51:04.004Z,66.52
2023-04-06T17:53:37.875Z,66.67
2023-04-06T17:56:12.127Z,66.60
2023-04-06T17:58:45.818Z,66.67
2023-04-06T18:01:19.742Z,66.84
2023-04-06T18:03:53.344Z,66.90
2023-04-06T18:06:27.229Z,67.01
2023-04-06T18:09:02.331Z,67.02
2023-04-06T18:11:36.878Z,67.01
2023-04-06T18:14:13.015Z,67.11
2023-04-06T18:16:46.908Z,67.14
2023-04-06T18:19:20.787Z,67.31
2023-04-06T18:21:55.209Z,67.28
2023-04-06T18:24:41.172Z,67.48
2023-04-06T18:27:18.071Z,67.51
2023-04-06T18:29:53.690Z,67.65
2023-04-06T18:32:30.967Z,67.83
2023-04-06T18:35:05.888Z,67.82
2023-04-06T18:37:43.497Z,67.82
2023-04-06T18:40:38.030Z,67.93
2023-04-06T18:43:12.269Z,68.11
2023-04-06T18:45:46.215Z,68.11
2023-04-06T18:48:20.549Z,68.12
2023-04-06T18:51:02.326Z,68.27
2023-04-06T18:53:38.571Z,68.33
2023-04-06T18:56:21.702Z,68.51
2023-04-06T18:58:57.248Z,68.58
2023-04-06T19:01:34.147Z,68.52
2023-04-06T19:04:12.096Z,68.67
2023-04-06T19:06:47.065Z,68.78
2023-04-06T19:09:23.227Z,68.86
2023-04-06T19:11:58.128Z,68.90
2023-04-06T19:14:34.374Z,69.10
2023-04-06T19:17:08.692Z,69.01
2023-04-06T19:19:43.125Z,69.13
2023-04-06T19:22:17.092Z,69.18
2023-04-06T19:24:51.993Z,69.39
2023-04-06T19:27:25.594Z,69.47
2023-04-06T19:29:59.913Z,69.56
2023-04-06T19:32:34.079Z,69.75
2023-04-06T19:35:08.765Z,69.71
2023-04-06T19:37:44.933Z,69.79
2023-04-06T19:40:19.056Z,69.71
2023-04-06T19:42:52.791Z,69.96
2023-04-06T19:45:26.191Z,69.98
2023-04-06T19:47:59.744Z,70.23
2023-04-06T19:50:34.087Z,70.46
2023-04-06T19:53:17.749Z,70.55
2023-04-06T19:55:51.836Z,70.46
2023-04-06T19:58:25.751Z,70.46
2023-04-06T20:00:59.758Z,70.70
2023-04-06T20:03:33.576Z,70.86
2023-04-06T20:06:08.069Z,70.91
2023-04-06T20:08:41.698Z,70.99
2023-04-06T20:11:15.873Z,71.18
2023-04-06T20:13:49.969Z,71.58
2023-04-06T20:16:24.408Z,71.98
2023-04-06T20:18:58.039Z,71.91
2023-04-06T20:21:31.694Z,71.85
2023-04-06T20:24:05.351Z,71.87
2023-04-06T20:26:59.884Z,71.89
2023-04-06T20:29:34.172Z,71.96
2023-04-06T20:32:08.650Z,72.13
2023-04-06T20:34:42.826Z,72.24
2023-04-06T20:37:16.965Z,72.24
2023-04-06T20:40:01.493Z,72.07
2023-04-06T20:42:37.388Z,71.97
2023-04-06T20:45:15.538Z,72.09
2023-04-06T20:47:49.529Z,72.14
2023-04-06T20:50:23.283Z,72.12
2023-04-06T20:53:18.405Z,72.17
2023-04-06T20:55:52.514Z,72.10
2023-04-06T20:58:26.662Z,72.14
2023-04-06T21:01:00.399Z,72.20
2023-04-06T21:03:34.849Z,72.07
2023-04-06T21:06:09.320Z,72.00
2023-04-06T21:08:43.140Z,72.07
2023-04-06T21:11:17.140Z,72.16
2023-04-06T21:13:51.175Z,72.31
2023-04-06T21:16:25.142Z,72.31
2023-04-06T21:18:58.936Z,72.53
2023-04-06T21:21:32.829Z,72.50
2023-04-06T21:24:07.276Z,72.54
2023-04-06T21:26:41.252Z,72.54
2023-04-06T21:29:14.928Z,72.61
2023-04-06T21:31:48.749Z,72.69
2023-04-06T21:34:22.510Z,72.66
2023-04-06T21:36:56.516Z,72.82
2023-04-06T21:39:30.103Z,72.85
2023-04-06T21:42:04.107Z,72.79
2023-04-06T21:44:38.660Z,72.81
2023-04-06T21:47:12.411Z,72.77
2023-04-06T21:49:46.152Z,72.89
2023-04-06T21:52:19.640Z,72.82
2023-04-06T21:54:53.772Z,72.91
2023-04-06T21:57:27.914Z,72.94
2023-04-06T22:00:01.724Z,73.02
2023-04-06T22:02:35.924Z,72.91
2023-04-06T22:05:10.178Z,72.83
2023-04-06T22:07:43.933Z,72.75
2023-04-06T22:10:17.871Z,72.82
2023-04-06T22:12:52.746Z,72.87
2023-04-06T22:15:26.831Z,73.04
2023-04-06T22:18:01.394Z,73.02
2023-04-06T22:20:36.073Z,73.12
2023-04-06T22:23:10.127Z,73.10
2023-04-06T22:25:43.993Z,73.10
2023-04-06T22:28:17.493Z,73.18
2023-04-06T22:30:51.175Z,73.20
2023-04-06T22:33:25.123Z,73.23
2023-04-06T22:35:59.014Z,73.26
2023-04-06T22:38:32.700Z,73.28
2023-04-06T22:41:08.031Z,73.28
2023-04-06T22:43:42.758Z,73.29
2023-04-06T22:46:16.300Z,73.26
2023-04-06T22:48:49.730Z,73.35
2023-04-06T22:51:23.598Z,73.33
2023-04-06T22:53:57.792Z,73.43
2023-04-06T22:56:31.759Z,73.56
2023-04-06T22:59:05.567Z,73.72
2023-04-06T23:01:39.432Z,73.72
2023-04-06T23:04:13.332Z,73.70
2023-04-06T23:06:46.985Z,73.78
2023-04-06T23:09:20.521Z,73.75
2023-04-06T23:11:54.156Z,73.82
2023-04-06T23:14:28.501Z,73.87
2023-04-06T23:17:02.130Z,73.89
2023-04-06T23:19:35.532Z,73.88
2023-04-06T23:22:09.325Z,73.80
2023-04-06T23:24:43.172Z,73.90
2023-04-06T23:27:16.931Z,73.87
2023-04-06T23:29:50.504Z,73.83
2023-04-06T23:32:24.561Z,73.81
2023-04-06T23:34:57.961Z,73.91
2023-04-06T23:37:31.807Z,74.01
2023-04-06T23:40:06.299Z,74.01
2023-04-06T23:42:40.273Z,73.97
2023-04-06T23:45:14.580Z,74.07
2023-04-06T23:47:48.242Z,74.05
2023-04-06T23:50:22.363Z,74.07
2023-04-06T23:52:55.924Z,74.14
2023-04-06T23:55:29.681Z,74.20
2023-04-06T23:58:04.479Z,74.32
